createdAt,value
2019-04-16T00:03:16.657Z,5.70
2019-04-16T00:06:19.290Z,5.60
2019-04-16T00:09:06.325Z,5.60
2019-04-16T00:11:52.771Z,5.60
2019-04-16T00:14:38.103Z,5.60
2019-04-16T00:17:19.473Z,5.60
2019-04-16T00:20:05.914Z,5.60
2019-04-16T00:25:36.316Z,5.50
2019-04-16T00:28:06.330Z,5.50
2019-04-16T00:30:55.189Z,5.50
2019-04-16T00:33:44.031Z,5.40
2019-04-16T00:36:32.631Z,5.40
2019-04-16T00:39:24.544Z,5.40
2019-04-16T00:42:11.682Z,5.40
2019-04-16T00:45:00.265Z,5.40
2019-04-16T00:47:41.420Z,5.40
2019-04-16T00:50:23.105Z,5.40
2019-04-16T00:53:07.817Z,5.40
2019-04-16T00:55:47.955Z,5.40
2019-04-16T00:58:28.667Z,5.40
2019-04-16T01:01:10.325Z,5.40
2019-04-16T01:03:51.377Z,5.40
2019-04-16T01:06:33.083Z,5.40
2019-04-16T01:09:14.463Z,5.30
2019-04-16T01:11:56.107Z,5.30
2019-04-16T01:14:38.300Z,5.40
2019-04-16T01:17:19.312Z,5.40
2019-04-16T01:20:00.251Z,5.50
2019-04-16T01:22:41.371Z,5.50
2019-04-16T01:25:23.265Z,5.50
2019-04-16T01:28:08.343Z,5.50
2019-04-16T01:31:08.416Z,5.40
2019-04-16T01:39:58.103Z,5.50
2019-04-16T01:42:39.057Z,5.50
2019-04-16T01:45:22.421Z,5.50
2019-04-16T01:47:51.972Z,5.40
2019-04-16T01:50:21.658Z,5.40
2019-04-16T01:52:51.191Z,5.40
2019-04-16T01:55:25.489Z,5.30
2019-04-16T01:58:11.098Z,5.40
2019-04-16T02:00:59.663Z,5.40
2019-04-16T02:03:48.862Z,5.50
2019-04-16T02:06:38.450Z,5.50
2019-04-16T02:09:27.061Z,5.50
2019-04-16T02:15:10.779Z,5.60
2019-04-16T02:17:59.958Z,5.60
2019-04-16T02:20:49.622Z,5.60
2019-04-16T02:23:38.185Z,5.50
2019-04-16T02:26:26.816Z,5.60
2019-04-16T02:29:15.406Z,5.60
2019-04-16T02:32:03.953Z,5.60
2019-04-16T02:34:52.540Z,5.60
2019-04-16T02:37:41.148Z,5.60
2019-04-16T02:40:29.792Z,5.60
2019-04-16T02:43:18.490Z,5.60
2019-04-16T02:46:07.169Z,5.50
2019-04-16T02:48:55.832Z,5.40
2019-04-16T02:52:03.299Z,5.40
2019-04-16T02:58:34.014Z,5.40
2019-04-16T03:01:37.293Z,5.40
2019-04-16T03:07:23.816Z,5.50
2019-04-16T03:10:13.892Z,5.50
2019-04-16T03:13:02.638Z,5.60
2019-04-16T03:16:10.034Z,5.60
2019-04-16T03:19:20.121Z,5.60
2019-04-16T03:22:07.743Z,5.60
2019-04-16T03:24:56.350Z,5.40
2019-04-16T03:27:44.945Z,5.50
2019-04-16T03:30:40.288Z,5.40
2019-04-16T03:33:23.806Z,5.40
2019-04-16T03:36:12.345Z,5.40
2019-04-16T03:39:00.914Z,5.40
2019-04-16T03:41:49.446Z,5.40
2019-04-16T03:44:37.978Z,5.30
2019-04-16T03:47:19.930Z,5.30
2019-04-16T03:50:01.287Z,5.20
2019-04-16T03:52:45.619Z,5.20
2019-04-16T03:55:26.459Z,5.20
2019-04-16T03:58:09.837Z,5.10
2019-04-16T04:00:51.091Z,5.10
2019-04-16T04:03:32.272Z,5.00
2019-04-16T04:06:13.942Z,5.00
2019-04-16T04:08:55.401Z,4.90
2019-04-16T04:11:40.989Z,4.80
2019-04-16T04:14:23.292Z,4.80
2019-04-16T04:17:06.675Z,4.90
2019-04-16T04:19:46.165Z,4.80
2019-04-16T04:22:28.212Z,4.90
2019-04-16T04:25:09.547Z,4.90
2019-04-16T04:27:50.312Z,4.80
2019-04-16T04:30:31.993Z,4.80
2019-04-16T04:33:32.499Z,4.80
2019-04-16T04:36:14.123Z,4.80
2019-04-16T04:38:55.384Z,4.80
2019-04-16T04:41:37.031Z,4.80
2019-04-16T04:44:18.755Z,4.80
2019-04-16T04:46:49.513Z,4.90
2019-04-16T04:49:38.296Z,4.90
2019-04-16T04:52:27.418Z,5.00
2019-04-16T04:55:17.244Z,5.00
2019-04-16T04:58:05.913Z,5.10
2019-04-16T05:04:08.878Z,5.20
2019-04-16T05:10:08.825Z,5.50
2019-04-16T05:12:57.445Z,5.60
2019-04-16T05:15:46.161Z,5.80
2019-04-16T05:18:34.840Z,6.00
2019-04-16T05:21:23.418Z,6.20
2019-04-16T05:24:11.970Z,6.30
2019-04-16T05:27:00.661Z,6.30
2019-04-16T05:29:49.665Z,6.40
2019-04-16T05:32:20.351Z,6.70
2019-04-16T05:34:49.829Z,6.90
2019-04-16T05:37:38.365Z,7.10
2019-04-16T05:40:28.038Z,7.20
2019-04-16T05:43:17.329Z,7.40
2019-04-16T05:45:58.550Z,7.50
2019-04-16T05:48:39.238Z,7.70
2019-04-16T05:51:20.795Z,7.70
2019-04-16T05:57:13.424Z,7.70
2019-04-16T05:59:54.429Z,7.80
2019-04-16T06:02:41.553Z,7.90
2019-04-16T06:05:26.774Z,8.20
2019-04-16T06:08:14.244Z,8.70
2019-04-16T06:10:57.481Z,9.50
2019-04-16T06:13:56.897Z,9.50
2019-04-16T06:17:00.325Z,10.10
2019-04-16T06:20:00.720Z,10.30
2019-04-16T06:22:49.399Z,10.70
2019-04-16T06:25:56.822Z,10.70
2019-04-16T06:29:04.272Z,11.20
2019-04-16T06:32:03.356Z,11.40
2019-04-16T06:35:10.881Z,11.70
2019-04-16T06:38:18.276Z,11.80
2019-04-16T06:41:25.846Z,11.20
2019-04-16T06:44:19.053Z,12.10
2019-04-16T06:47:19.485Z,11.50
2019-04-16T06:50:30.233Z,11.70
2019-04-16T06:56:16.495Z,11.80
2019-04-16T06:59:17.464Z,12.70
2019-04-16T07:02:07.631Z,13.10
2019-04-16T07:05:09.334Z,12.20
2019-04-16T07:08:09.668Z,11.50
2019-04-16T07:10:56.307Z,11.80
2019-04-16T07:13:41.964Z,11.80
2019-04-16T07:16:19.575Z,12.30
2019-04-16T07:19:01.188Z,13.10
2019-04-16T07:21:42.158Z,12.20
2019-04-16T07:24:23.644Z,12.30
2019-04-16T07:27:04.843Z,12.20
2019-04-16T07:29:52.102Z,12.30
2019-04-16T07:36:05.266Z,14.00
2019-04-16T07:39:06.532Z,15.20
2019-04-16T07:42:09.410Z,15.60
2019-04-16T07:45:02.708Z,14.30
2019-04-16T07:48:06.447Z,13.60
2019-04-16T07:51:06.496Z,13.70
2019-04-16T07:54:06.650Z,13.20
2019-04-16T07:56:49.716Z,13.50
2019-04-16T07:59:32.237Z,14.30
2019-04-16T08:02:13.516Z,15.10
2019-04-16T08:04:54.903Z,14.30
2019-04-16T08:07:34.787Z,15.10
2019-04-16T08:10:23.381Z,15.40
2019-04-16T08:13:33.654Z,15.20
2019-04-16T08:16:21.242Z,15.00
2019-04-16T08:19:12.263Z,16.00
2019-04-16T08:22:00.192Z,17.00
2019-04-16T08:28:06.569Z,16.40
2019-04-16T08:30:54.180Z,16.60
2019-04-16T08:33:42.916Z,15.50
2019-04-16T08:36:31.474Z,15.20
2019-04-16T08:39:20.009Z,15.80
2019-04-16T08:42:08.638Z,17.60
2019-04-16T08:44:57.099Z,17.80
2019-04-16T08:47:46.131Z,16.90
2019-04-16T08:50:35.971Z,16.50
2019-04-16T08:53:24.607Z,15.70
2019-04-16T08:56:13.235Z,17.00
2019-04-16T08:59:01.848Z,18.00
2019-04-16T09:04:59.491Z,17.70
2019-04-16T09:07:50.631Z,17.40
2019-04-16T09:10:31.256Z,16.80
2019-04-16T09:13:15.434Z,17.80
2019-04-16T09:15:57.251Z,18.00
2019-04-16T09:18:46.422Z,17.50
2019-04-16T09:21:28.114Z,18.20
2019-04-16T09:24:28.529Z,18.60
2019-04-16T09:30:42.461Z,16.40
2019-04-16T09:33:30.416Z,16.50
2019-04-16T09:36:32.688Z,16.90
2019-04-16T09:39:33.091Z,17.70
2019-04-16T09:42:14.706Z,18.00
2019-04-16T09:44:56.110Z,18.20
2019-04-16T09:47:37.821Z,18.60
2019-04-16T09:50:19.305Z,19.60
2019-04-16T09:53:02.023Z,20.40
2019-04-16T09:55:43.447Z,19.80
2019-04-16T09:58:25.579Z,20.90
2019-04-16T10:01:08.827Z,20.30
2019-04-16T10:03:53.662Z,19.40
2019-04-16T10:06:34.817Z,19.00
2019-04-16T10:09:19.845Z,19.50
2019-04-16T10:11:58.726Z,19.90
2019-04-16T10:14:40.665Z,21.20
2019-04-16T10:17:21.982Z,20.30
2019-04-16T10:20:03.167Z,19.80
2019-04-16T10:22:44.248Z,21.10
2019-04-16T10:25:25.646Z,21.20
2019-04-16T10:28:14.105Z,20.00
2019-04-16T10:30:56.536Z,19.00
2019-04-16T10:33:38.193Z,20.20
2019-04-16T10:36:19.635Z,20.40
2019-04-16T10:39:05.256Z,19.30
2019-04-16T10:41:50.851Z,20.40
2019-04-16T10:44:57.476Z,20.30
2019-04-16T10:47:57.777Z,19.10
2019-04-16T10:50:48.512Z,19.00
2019-04-16T10:53:50.473Z,19.70
2019-04-16T10:56:50.827Z,20.70
2019-04-16T10:59:57.456Z,19.60
2019-04-16T11:02:44.929Z,19.60
2019-04-16T11:05:45.367Z,21.70
2019-04-16T11:08:27.009Z,21.50
2019-04-16T11:11:08.683Z,20.90
2019-04-16T11:13:59.691Z,20.50
2019-04-16T11:16:36.094Z,20.70
2019-04-16T11:19:16.996Z,19.90
2019-04-16T11:21:59.915Z,20.30
2019-04-16T11:24:40.918Z,20.30
2019-04-16T11:27:22.200Z,19.90
2019-04-16T11:30:03.497Z,20.80
2019-04-16T11:32:44.858Z,21.20
2019-04-16T11:35:25.950Z,20.00
2019-04-16T11:38:08.512Z,19.70
2019-04-16T11:40:49.639Z,21.90
2019-04-16T11:43:30.727Z,22.00
2019-04-16T11:46:12.073Z,22.10
2019-04-16T11:48:53.773Z,24.40
2019-04-16T11:51:35.019Z,25.50
2019-04-16T11:54:16.621Z,25.50
2019-04-16T11:56:59.304Z,25.20
2019-04-16T11:59:40.723Z,24.30
2019-04-16T12:02:27.086Z,21.60
2019-04-16T12:05:15.496Z,22.70
2019-04-16T12:08:15.585Z,24.00
2019-04-16T12:11:05.824Z,23.50
2019-04-16T12:13:57.058Z,23.00
2019-04-16T12:16:53.869Z,23.50
2019-04-16T12:19:54.109Z,23.50
2019-04-16T12:22:43.718Z,24.20
2019-04-16T12:31:45.014Z,24.00
2019-04-16T12:34:45.139Z,22.90
2019-04-16T12:37:37.356Z,22.90
2019-04-16T12:40:24.985Z,22.60
2019-04-16T12:43:15.748Z,22.40
2019-04-16T12:46:22.596Z,21.40
2019-04-16T12:49:30.117Z,22.30
2019-04-16T12:52:37.501Z,24.40
2019-04-16T12:55:45.156Z,24.60
2019-04-16T12:58:52.581Z,24.40
2019-04-16T13:02:00.043Z,26.00
2019-04-16T13:05:07.471Z,24.70
2019-04-16T13:08:14.881Z,21.40
2019-04-16T13:11:22.394Z,20.50
2019-04-16T13:14:29.797Z,23.60
2019-04-16T13:17:37.255Z,21.80
2019-04-16T13:20:44.614Z,22.90
2019-04-16T13:23:52.110Z,24.90
2019-04-16T13:26:36.430Z,22.00
2019-04-16T13:29:19.879Z,24.30
2019-04-16T13:32:00.889Z,25.30
2019-04-16T13:34:42.284Z,23.40
2019-04-16T13:37:23.629Z,22.80
2019-04-16T13:40:10.825Z,21.70
2019-04-16T13:42:51.971Z,22.30
2019-04-16T13:45:35.613Z,21.50
2019-04-16T13:51:25.271Z,24.70
2019-04-16T13:54:33.978Z,27.00
2019-04-16T13:57:17.022Z,27.20
2019-04-16T14:00:04.467Z,25.50
2019-04-16T14:02:53.038Z,21.90
2019-04-16T14:05:37.542Z,21.00
2019-04-16T14:08:16.094Z,20.40
2019-04-16T14:10:57.047Z,20.20
2019-04-16T14:13:37.770Z,19.90
2019-04-16T14:16:19.357Z,19.60
2019-04-16T14:19:02.234Z,19.40
2019-04-16T14:21:43.296Z,20.20
2019-04-16T14:24:24.935Z,22.20
2019-04-16T14:27:06.718Z,22.00
2019-04-16T14:29:48.036Z,23.50
2019-04-16T14:32:28.715Z,23.40
2019-04-16T14:35:15.785Z,22.40
2019-04-16T14:37:57.280Z,21.50
2019-04-16T14:40:39.640Z,20.00
2019-04-16T14:43:29.176Z,19.90
2019-04-16T14:46:09.514Z,19.60
2019-04-16T14:48:50.724Z,19.10
2019-04-16T14:51:32.395Z,19.30
2019-04-16T14:57:25.102Z,18.80
2019-04-16T15:00:25.717Z,18.50
2019-04-16T15:03:26.177Z,18.60
2019-04-16T15:06:17.095Z,18.90
2019-04-16T15:09:07.449Z,18.80
2019-04-16T15:11:58.312Z,18.40
2019-04-16T15:14:51.652Z,18.30
2019-04-16T15:17:48.169Z,18.20
2019-04-16T15:20:55.941Z,18.20
2019-04-16T15:24:03.465Z,18.30
2019-04-16T15:27:10.855Z,18.20
2019-04-16T15:30:18.381Z,18.50
2019-04-16T15:33:26.066Z,18.40
2019-04-16T15:36:19.504Z,18.70
2019-04-16T15:39:26.817Z,18.30
2019-04-16T15:42:34.308Z,18.20
2019-04-16T15:45:41.716Z,18.10
2019-04-16T15:48:50.684Z,18.30
2019-04-16T15:51:58.296Z,18.50
2019-04-16T15:54:55.650Z,18.40
2019-04-16T15:58:04.552Z,18.50
2019-04-16T16:01:12.199Z,18.30
2019-04-16T16:04:12.003Z,18.50
2019-04-16T16:07:00.443Z,18.30
2019-04-16T16:09:59.725Z,18.30
2019-04-16T16:12:50.893Z,18.40
2019-04-16T16:15:41.113Z,18.50
2019-04-16T16:18:30.305Z,18.40
2019-04-16T16:21:18.803Z,18.20
2019-04-16T16:24:08.453Z,18.10
2019-04-16T16:26:57.831Z,18.10
2019-04-16T16:29:46.691Z,18.00
2019-04-16T16:32:35.246Z,18.00
2019-04-16T16:35:23.929Z,18.20
2019-04-16T16:38:14.122Z,18.10
2019-04-16T16:41:03.101Z,18.30
2019-04-16T16:43:51.720Z,18.50
2019-04-16T16:53:06.108Z,18.40
2019-04-16T16:55:58.961Z,18.60
2019-04-16T16:59:25.225Z,18.40
2019-04-16T17:01:59.049Z,18.40
2019-04-16T17:04:44.842Z,18.30
2019-04-16T17:07:26.384Z,18.20
2019-04-16T17:10:07.099Z,18.10
2019-04-16T17:12:46.693Z,18.00
2019-04-16T17:15:35.646Z,17.70
2019-04-16T17:18:27.412Z,17.50
2019-04-16T17:21:16.101Z,17.50
2019-04-16T17:24:04.807Z,17.30
2019-04-16T17:26:53.531Z,17.20
2019-04-16T17:29:46.649Z,17.10
2019-04-16T17:32:34.219Z,17.10
2019-04-16T17:35:22.747Z,17.00
2019-04-16T17:38:11.319Z,17.00
2019-04-16T17:41:02.403Z,16.90
2019-04-16T17:44:10.006Z,16.70
2019-04-16T17:47:31.331Z,16.60
2019-04-16T17:50:13.835Z,16.50
2019-04-16T17:53:21.230Z,16.30
2019-04-16T17:56:28.641Z,16.20
2019-04-16T17:59:36.039Z,16.10
2019-04-16T18:02:38.228Z,16.00
2019-04-16T18:08:26.061Z,15.80
2019-04-16T18:11:21.033Z,15.70
2019-04-16T18:14:23.949Z,15.60
2019-04-16T18:17:16.659Z,15.50
2019-04-16T18:20:17.265Z,15.40
2019-04-16T18:23:27.481Z,15.30
2019-04-16T18:26:25.286Z,15.20
2019-04-16T18:29:31.800Z,15.20
2019-04-16T18:32:10.996Z,15.00
2019-04-16T18:35:16.412Z,14.90
2019-04-16T18:38:19.062Z,14.80
2019-04-16T18:41:20.605Z,14.80
2019-04-16T18:44:20.597Z,14.70
2019-04-16T18:47:23.895Z,14.60
2019-04-16T18:50:08.426Z,14.50
2019-04-16T18:52:50.115Z,14.40
2019-04-16T18:55:31.446Z,14.40
2019-04-16T18:58:12.829Z,14.30
2019-04-16T19:00:57.081Z,14.20
2019-04-16T19:03:37.946Z,14.10
2019-04-16T19:06:19.250Z,14.10
2019-04-16T19:09:00.885Z,14.10
2019-04-16T19:11:42.290Z,14.00
2019-04-16T19:17:07.587Z,14.00
2019-04-16T19:19:56.346Z,13.80
2019-04-16T19:22:46.482Z,13.70
2019-04-16T19:25:35.150Z,13.50
2019-04-16T19:31:23.946Z,13.30
2019-04-16T19:34:14.089Z,13.20
2019-04-16T19:37:03.031Z,13.20
2019-04-16T19:39:52.927Z,13.10
2019-04-16T19:42:41.524Z,13.00
2019-04-16T19:45:30.061Z,12.90
2019-04-16T19:48:34.275Z,12.80
2019-04-16T19:51:09.027Z,12.70
2019-04-16T19:53:59.168Z,12.50
2019-04-16T19:56:51.507Z,12.50
2019-04-16T19:59:39.663Z,12.40
2019-04-16T20:02:32.955Z,12.30
2019-04-16T20:05:10.705Z,12.30
2019-04-16T20:07:40.188Z,12.20
2019-04-16T20:10:28.840Z,12.10
2019-04-16T20:13:19.964Z,12.10
2019-04-16T20:16:08.550Z,12.00
2019-04-16T20:18:58.415Z,12.00
2019-04-16T20:21:47.094Z,11.90
2019-04-16T20:24:35.790Z,11.80
2019-04-16T20:27:06.815Z,11.80
2019-04-16T20:29:55.569Z,11.70
2019-04-16T20:32:44.215Z,11.70
2019-04-16T20:35:32.725Z,11.60
2019-04-16T20:38:21.245Z,11.50
2019-04-16T20:41:09.777Z,11.40
2019-04-16T20:43:58.282Z,11.40
2019-04-16T20:46:46.851Z,11.30
2019-04-16T20:49:37.548Z,11.30
2019-04-16T20:52:26.049Z,11.20
2019-04-16T20:55:16.042Z,11.10
2019-04-16T20:58:05.215Z,11.00
2019-04-16T21:04:04.501Z,10.90
2019-04-16T21:06:42.941Z,10.80
2019-04-16T21:09:26.765Z,10.80
2019-04-16T21:12:12.037Z,10.70
2019-04-16T21:14:50.855Z,10.70
2019-04-16T21:17:31.947Z,10.60
2019-04-16T21:20:13.006Z,10.60
2019-04-16T21:22:57.620Z,10.50
2019-04-16T21:25:26.136Z,10.50
2019-04-16T21:28:33.583Z,10.50
2019-04-16T21:37:57.998Z,10.40
2019-04-16T21:40:46.496Z,10.30
2019-04-16T21:43:35.695Z,10.30
2019-04-16T21:46:25.303Z,10.20
2019-04-16T21:49:13.887Z,10.20
2019-04-16T21:52:23.109Z,10.20
2019-04-16T21:55:11.690Z,10.20
2019-04-16T22:04:50.844Z,10.20
2019-04-16T22:07:32.312Z,10.10
2019-04-16T22:10:13.867Z,10.00
2019-04-16T22:12:55.634Z,10.00
2019-04-16T22:15:36.777Z,10.00
2019-04-16T22:18:18.280Z,10.00
2019-04-16T22:20:59.912Z,9.90
2019-04-16T22:23:40.649Z,9.90
2019-04-16T22:26:21.449Z,9.90
2019-04-16T22:29:02.331Z,9.90
2019-04-16T22:31:43.255Z,9.90
2019-04-16T22:34:24.725Z,9.80
2019-04-16T22:37:05.931Z,9.80
2019-04-16T22:43:21.275Z,9.60
2019-04-16T22:46:06.923Z,9.60
2019-04-16T22:48:58.535Z,9.50
2019-04-16T22:51:43.217Z,9.50
2019-04-16T22:54:21.682Z,9.40
2019-04-16T23:03:08.984Z,9.20
2019-04-16T23:05:57.533Z,9.20
2019-04-16T23:08:46.073Z,9.10
2019-04-16T23:11:34.630Z,9.00
2019-04-16T23:14:23.077Z,9.00
2019-04-16T23:17:14.198Z,9.00
2019-04-16T23:20:01.723Z,8.90
2019-04-16T23:22:50.400Z,8.90
2019-04-16T23:25:38.904Z,8.80
2019-04-16T23:28:27.400Z,8.80
2019-04-16T23:31:15.972Z,8.80
2019-04-16T23:34:06.103Z,8.70
2019-04-16T23:36:54.910Z,8.70
2019-04-16T23:39:43.442Z,8.60
2019-04-16T23:42:25.073Z,8.60
2019-04-16T23:48:52.026Z,8.40
2019-04-16T23:51:40.950Z,8.40
2019-04-16T23:54:29.782Z,8.30
2019-04-16T23:57:21.607Z,8.30
